createdAt,value
2023-05-16T00:00:27.974Z,8.33
2023-05-16T00:03:02.308Z,8.33
2023-05-16T00:05:36.155Z,8.70
2023-05-16T00:08:08.991Z,8.80
2023-05-16T00:10:45.938Z,8.30
2023-05-16T00:13:22.313Z,7.97
2023-05-16T00:15:56.455Z,9.43
2023-05-16T00:18:30.139Z,8.27
2023-05-16T00:21:03.710Z,9.33
2023-05-16T00:23:38.489Z,9.60
2023-05-16T00:26:12.784Z,9.47
2023-05-16T00:28:46.203Z,10.17
2023-05-16T00:31:19.202Z,8.87
2023-05-16T00:33:52.043Z,9.80
2023-05-16T00:36:25.657Z,9.43
2023-05-16T00:38:58.526Z,10.00
2023-05-16T00:41:33.131Z,9.83
2023-05-16T00:44:06.625Z,10.07
2023-05-16T00:46:41.577Z,10.43
2023-05-16T00:49:14.457Z,10.30
2023-05-16T00:51:47.391Z,10.83
2023-05-16T00:54:22.788Z,10.67
2023-05-16T00:56:57.362Z,10.73
2023-05-16T00:59:30.427Z,10.87
2023-05-16T01:02:03.461Z,11.23
2023-05-16T01:04:36.671Z,11.57
2023-05-16T01:07:09.550Z,11.83
2023-05-16T01:09:42.568Z,12.40
2023-05-16T01:12:28.498Z,12.67
2023-05-16T01:15:05.784Z,13.07
2023-05-16T01:17:43.679Z,13.47
2023-05-16T01:20:21.874Z,12.40
2023-05-16T01:23:02.797Z,13.57
2023-05-16T01:25:46.838Z,13.47
2023-05-16T01:28:21.397Z,15.43
2023-05-16T01:30:54.559Z,15.53
2023-05-16T01:33:27.401Z,12.77
2023-05-16T01:36:01.274Z,12.50
2023-05-16T01:38:38.726Z,16.30
2023-05-16T01:41:14.213Z,15.97
2023-05-16T01:43:49.923Z,11.50
2023-05-16T01:46:24.721Z,14.60
2023-05-16T01:49:05.714Z,14.10
2023-05-16T01:51:41.454Z,15.10
2023-05-16T01:54:19.096Z,16.00
2023-05-16T01:56:52.883Z,12.90
2023-05-16T01:59:27.787Z,14.63
2023-05-16T02:02:00.841Z,15.27
2023-05-16T02:04:33.561Z,15.63
2023-05-16T02:07:06.757Z,13.83
2023-05-16T02:09:39.798Z,14.37
2023-05-16T02:12:12.737Z,13.93
2023-05-16T02:14:48.667Z,15.13
2023-05-16T02:17:22.001Z,14.80
2023-05-16T02:19:57.593Z,13.57
2023-05-16T02:22:30.366Z,14.17
2023-05-16T02:25:06.316Z,14.50
2023-05-16T02:27:39.385Z,14.13
2023-05-16T02:30:13.970Z,15.13
2023-05-16T02:32:46.920Z,14.07
2023-05-16T02:35:19.706Z,14.03
2023-05-16T02:37:52.533Z,13.73
2023-05-16T02:40:25.394Z,14.47
2023-05-16T02:42:58.158Z,14.90
2023-05-16T02:45:32.524Z,15.13
2023-05-16T02:48:05.485Z,14.37
2023-05-16T02:50:42.299Z,15.63
2023-05-16T02:53:15.098Z,14.30
2023-05-16T02:55:50.772Z,14.77
2023-05-16T02:58:23.507Z,14.67
2023-05-16T03:00:58.182Z,15.87
2023-05-16T03:03:33.329Z,15.20
2023-05-16T03:06:06.451Z,15.17
2023-05-16T03:08:39.297Z,14.90
2023-05-16T03:11:12.057Z,15.53
2023-05-16T03:13:45.282Z,13.70
2023-05-16T03:16:19.535Z,15.50
2023-05-16T03:18:52.630Z,16.53
2023-05-16T03:21:26.002Z,15.07
2023-05-16T03:24:01.461Z,16.40
2023-05-16T03:26:34.589Z,15.67
2023-05-16T03:29:07.544Z,15.73
2023-05-16T03:31:43.460Z,16.23
2023-05-16T03:34:19.244Z,15.27
2023-05-16T03:36:52.098Z,15.37
2023-05-16T03:39:24.846Z,16.63
2023-05-16T03:41:57.791Z,14.80
2023-05-16T03:44:39.230Z,14.13
2023-05-16T03:47:13.407Z,16.47
2023-05-16T03:49:46.229Z,14.30
2023-05-16T03:52:19.003Z,15.27
2023-05-16T03:54:51.901Z,15.57
2023-05-16T03:57:24.906Z,15.77
2023-05-16T03:59:59.152Z,15.27
2023-05-16T04:02:36.218Z,17.50
2023-05-16T04:05:12.455Z,16.93
2023-05-16T04:07:45.461Z,15.17
2023-05-16T04:10:18.281Z,16.60
2023-05-16T04:12:53.797Z,17.37
2023-05-16T04:15:26.865Z,17.67
2023-05-16T04:18:01.220Z,18.17
2023-05-16T04:20:33.890Z,16.43
2023-05-16T04:23:08.613Z,16.53
2023-05-16T04:25:43.010Z,15.97
2023-05-16T04:28:18.687Z,17.83
2023-05-16T04:30:51.686Z,16.63
2023-05-16T04:33:26.223Z,15.03
2023-05-16T04:35:59.291Z,17.63
2023-05-16T04:38:32.087Z,17.57
2023-05-16T04:41:05.001Z,17.43
2023-05-16T04:43:38.239Z,16.83
2023-05-16T04:46:11.540Z,16.67
2023-05-16T04:48:49.128Z,17.00
2023-05-16T04:51:22.055Z,17.53
2023-05-16T04:53:54.922Z,18.20
2023-05-16T04:56:27.914Z,16.97
2023-05-16T04:59:00.806Z,16.83
2023-05-16T05:01:34.132Z,18.27
2023-05-16T05:04:08.922Z,18.07
2023-05-16T05:06:41.833Z,18.13
2023-05-16T05:09:14.765Z,16.53
2023-05-16T05:11:47.553Z,16.80
2023-05-16T05:14:20.429Z,16.43
2023-05-16T05:16:53.333Z,15.53
2023-05-16T05:19:27.583Z,17.33
2023-05-16T05:22:01.154Z,16.30
2023-05-16T05:24:35.309Z,17.80
2023-05-16T05:27:08.274Z,15.20
2023-05-16T05:29:41.344Z,14.47
2023-05-16T05:32:16.736Z,14.40
2023-05-16T05:34:51.150Z,12.80
2023-05-16T05:37:24.235Z,13.30
2023-05-16T05:40:04.638Z,13.37
2023-05-16T05:42:37.727Z,13.57
2023-05-16T05:45:11.006Z,12.63
2023-05-16T05:47:44.240Z,13.80
2023-05-16T05:50:18.575Z,13.43
2023-05-16T05:52:51.620Z,14.17
2023-05-16T05:55:24.921Z,11.10
2023-05-16T05:57:58.021Z,13.53
2023-05-16T06:00:30.981Z,12.03
2023-05-16T06:03:03.741Z,11.73
2023-05-16T06:05:38.146Z,11.73
2023-05-16T06:08:11.384Z,13.43
2023-05-16T06:10:44.272Z,10.97
2023-05-16T06:13:16.989Z,11.77
2023-05-16T06:15:51.490Z,11.87
2023-05-16T06:18:24.452Z,10.47
2023-05-16T06:21:01.771Z,11.20
2023-05-16T06:23:35.764Z,11.50
2023-05-16T06:26:11.247Z,10.57
2023-05-16T06:28:44.160Z,10.17
2023-05-16T06:31:19.946Z,11.47
2023-05-16T06:33:52.719Z,10.53
2023-05-16T06:36:28.032Z,9.20
2023-05-16T06:39:00.806Z,9.27
2023-05-16T06:41:34.615Z,10.00
2023-05-16T06:44:07.492Z,9.60
2023-05-16T06:46:40.622Z,9.13
2023-05-16T06:49:16.052Z,8.57
2023-05-16T06:51:50.557Z,9.23
2023-05-16T06:54:23.535Z,8.77
2023-05-16T06:56:56.653Z,9.13
2023-05-16T06:59:29.468Z,7.57
2023-05-16T07:02:02.432Z,8.73
2023-05-16T07:04:37.860Z,7.13
2023-05-16T07:07:13.611Z,7.73
2023-05-16T07:09:46.492Z,7.87
2023-05-16T07:12:19.409Z,7.43
2023-05-16T07:14:52.771Z,7.13
2023-05-16T07:17:25.701Z,7.63
2023-05-16T07:19:58.507Z,7.23
2023-05-16T07:22:32.746Z,7.03
2023-05-16T07:25:06.006Z,6.40
2023-05-16T07:27:42.099Z,5.90
2023-05-16T07:30:15.716Z,5.23
2023-05-16T07:32:48.745Z,5.27
2023-05-16T07:35:21.728Z,5.70
2023-05-16T07:37:55.961Z,3.43
2023-05-16T07:40:34.299Z,5.23
2023-05-16T07:43:07.286Z,5.40
2023-05-16T07:45:41.689Z,4.53
2023-05-16T07:48:14.636Z,5.00
2023-05-16T07:50:50.852Z,4.93
2023-05-16T07:53:25.563Z,5.00
2023-05-16T07:55:58.854Z,4.77
2023-05-16T07:58:31.914Z,4.70
2023-05-16T08:01:07.501Z,4.47
2023-05-16T08:03:40.415Z,4.47
2023-05-16T08:06:13.439Z,4.13
2023-05-16T08:08:50.726Z,4.30
2023-05-16T08:11:23.625Z,3.73
2023-05-16T08:13:56.521Z,4.43
2023-05-16T08:16:29.452Z,3.47
2023-05-16T08:19:02.278Z,4.37
2023-05-16T08:21:35.235Z,3.70
2023-05-16T08:24:11.241Z,3.50
2023-05-16T08:26:43.997Z,4.10
2023-05-16T08:29:17.349Z,3.70
2023-05-16T08:31:50.200Z,3.83
2023-05-16T08:34:23.137Z,3.30
2023-05-16T08:36:56.042Z,3.20
2023-05-16T08:39:33.100Z,3.63
2023-05-16T08:42:06.686Z,3.40
2023-05-16T08:44:39.579Z,3.17
2023-05-16T08:47:13.927Z,2.93
2023-05-16T08:49:48.671Z,2.83
2023-05-16T08:52:22.912Z,3.20
2023-05-16T08:55:09.167Z,2.63
2023-05-16T08:57:43.849Z,3.50
2023-05-16T09:00:17.168Z,2.70
2023-05-16T09:02:53.556Z,2.80
2023-05-16T09:05:27.145Z,2.40
2023-05-16T09:08:00.302Z,2.90
2023-05-16T09:10:34.851Z,2.20
2023-05-16T09:13:07.809Z,3.07
2023-05-16T09:15:41.163Z,2.53
2023-05-16T09:18:16.085Z,2.43
2023-05-16T09:20:55.318Z,2.50
2023-05-16T09:23:28.031Z,2.63
2023-05-16T09:26:02.142Z,2.80
2023-05-16T09:28:35.094Z,2.40
2023-05-16T09:31:20.777Z,2.63
2023-05-16T09:33:53.949Z,2.10
2023-05-16T09:36:26.981Z,2.23
2023-05-16T09:38:59.792Z,2.50
2023-05-16T09:41:38.952Z,1.87
2023-05-16T09:44:11.740Z,1.80
2023-05-16T09:46:44.495Z,2.37
2023-05-16T09:49:17.288Z,2.10
2023-05-16T09:51:50.663Z,2.60
2023-05-16T09:54:31.239Z,3.20
2023-05-16T09:57:08.043Z,2.73
2023-05-16T09:59:41.189Z,2.73
2023-05-16T10:02:14.626Z,2.33
2023-05-16T10:04:47.586Z,2.13
2023-05-16T10:07:20.693Z,2.53
2023-05-16T10:09:54.173Z,3.13
2023-05-16T10:12:31.138Z,2.73
2023-05-16T10:15:04.543Z,2.87
2023-05-16T10:17:41.006Z,3.40
2023-05-16T10:20:15.966Z,3.50
2023-05-16T10:22:50.544Z,2.80
2023-05-16T10:25:27.337Z,2.63
2023-05-16T10:28:01.973Z,2.70
2023-05-16T10:30:34.759Z,3.67
2023-05-16T10:33:09.987Z,3.57
2023-05-16T10:35:42.923Z,3.60
2023-05-16T10:38:16.317Z,3.67
2023-05-16T10:40:49.165Z,3.23
2023-05-16T10:43:26.890Z,3.27
2023-05-16T10:46:01.036Z,3.10
2023-05-16T10:48:36.033Z,2.80
2023-05-16T10:51:23.645Z,3.43
2023-05-16T10:53:56.511Z,3.17
2023-05-16T10:56:29.693Z,4.03
2023-05-16T10:59:04.828Z,3.10
2023-05-16T11:01:37.430Z,3.87
2023-05-16T11:04:11.358Z,3.13
2023-05-16T11:06:48.091Z,3.07
2023-05-16T11:09:22.689Z,3.33
2023-05-16T11:11:57.307Z,2.80
2023-05-16T11:14:42.535Z,3.20
2023-05-16T11:17:16.077Z,2.43
2023-05-16T11:19:49.808Z,2.80
2023-05-16T11:22:23.950Z,2.73
2023-05-16T11:24:58.291Z,2.73
2023-05-16T11:27:32.006Z,2.77
2023-05-16T11:30:14.084Z,2.70
2023-05-16T11:32:47.388Z,3.07
2023-05-16T11:35:20.195Z,3.13
2023-05-16T11:37:53.319Z,2.90
2023-05-16T11:40:29.180Z,2.43
2023-05-16T11:43:04.234Z,2.73
2023-05-16T11:45:40.346Z,2.53
2023-05-16T11:48:21.812Z,2.43
2023-05-16T11:51:01.446Z,3.27
2023-05-16T11:53:34.535Z,2.40
2023-05-16T11:56:09.528Z,2.57
2023-05-16T11:58:43.487Z,3.37
2023-05-16T12:01:19.987Z,2.50
2023-05-16T12:03:56.836Z,5.37
2023-05-16T12:06:31.322Z,7.23
2023-05-16T12:09:10.524Z,3.13
2023-05-16T12:11:43.909Z,2.90
2023-05-16T12:14:16.477Z,3.00
2023-05-16T12:16:52.129Z,3.13
2023-05-16T12:19:25.331Z,2.63
2023-05-16T12:21:58.225Z,2.60
2023-05-16T12:24:31.860Z,2.63
2023-05-16T12:27:05.333Z,2.57
2023-05-16T12:29:38.166Z,2.33
2023-05-16T12:32:12.304Z,2.30
2023-05-16T12:34:50.349Z,2.40
2023-05-16T12:37:23.121Z,2.40
2023-05-16T12:40:01.100Z,2.57
2023-05-16T12:42:33.916Z,2.30
2023-05-16T12:45:07.101Z,2.30
2023-05-16T12:47:41.320Z,1.90
2023-05-16T12:50:16.461Z,2.10
2023-05-16T12:52:50.848Z,2.17
2023-05-16T12:55:25.959Z,2.47
2023-05-16T12:58:02.007Z,2.77
2023-05-16T13:00:34.787Z,2.57
2023-05-16T13:03:09.027Z,2.10
2023-05-16T13:05:42.332Z,2.10
2023-05-16T13:08:15.082Z,2.30
2023-05-16T13:10:48.996Z,2.37
2023-05-16T13:13:35.042Z,2.00
2023-05-16T13:16:08.443Z,2.70
2023-05-16T13:18:42.738Z,2.40
2023-05-16T13:21:16.128Z,2.20
2023-05-16T13:23:48.802Z,3.47
2023-05-16T13:26:23.345Z,2.40
2023-05-16T13:28:56.215Z,2.47
2023-05-16T13:31:29.040Z,2.20
2023-05-16T13:34:05.686Z,2.00
2023-05-16T13:36:52.946Z,2.33
2023-05-16T13:39:26.874Z,2.03
2023-05-16T13:42:00.208Z,1.93
2023-05-16T13:44:33.308Z,2.17
2023-05-16T13:47:06.270Z,2.43
2023-05-16T13:49:40.571Z,2.60
2023-05-16T13:52:13.252Z,1.93
2023-05-16T13:54:46.029Z,1.90
2023-05-16T13:57:18.623Z,1.83
2023-05-16T14:02:27.171Z,2.00
2023-05-16T14:05:01.723Z,1.77
2023-05-16T14:07:34.444Z,2.53
2023-05-16T14:10:07.928Z,2.43
2023-05-16T14:12:41.280Z,1.80
2023-05-16T14:15:14.221Z,1.43
2023-05-16T14:17:47.058Z,1.70
2023-05-16T14:20:23.453Z,3.87
2023-05-16T14:22:56.802Z,1.70
2023-05-16T14:25:30.034Z,2.20
2023-05-16T14:28:03.035Z,1.83
2023-05-16T14:30:37.371Z,1.80
2023-05-16T14:33:12.559Z,1.83
2023-05-16T14:35:49.539Z,2.07
2023-05-16T14:38:25.208Z,1.90
2023-05-16T14:40:58.265Z,1.70
2023-05-16T14:43:31.076Z,1.43
2023-05-16T14:46:03.736Z,1.70
2023-05-16T14:48:36.593Z,2.30
2023-05-16T14:51:11.951Z,1.53
2023-05-16T14:53:47.146Z,1.90
2023-05-16T14:56:20.010Z,1.50
2023-05-16T14:58:52.613Z,1.40
2023-05-16T15:01:25.399Z,1.73
2023-05-16T15:03:58.079Z,2.07
2023-05-16T15:06:32.108Z,1.70
2023-05-16T15:09:05.900Z,1.53
2023-05-16T15:11:38.749Z,1.40
2023-05-16T15:14:11.700Z,1.60
2023-05-16T15:16:44.437Z,1.40
2023-05-16T15:19:20.197Z,1.80
2023-05-16T15:21:56.996Z,2.00
2023-05-16T15:24:29.888Z,1.10
2023-05-16T15:27:04.924Z,3.13
2023-05-16T15:29:38.979Z,1.67
2023-05-16T15:32:13.577Z,1.70
2023-05-16T15:34:49.296Z,1.70
2023-05-16T15:37:23.279Z,1.70
2023-05-16T15:40:01.010Z,1.50
2023-05-16T15:42:33.961Z,1.60
2023-05-16T15:45:07.006Z,1.60
2023-05-16T15:47:39.838Z,1.50
2023-05-16T15:50:16.967Z,1.83
2023-05-16T15:52:51.048Z,1.50
2023-05-16T15:55:23.734Z,1.30
2023-05-16T15:57:57.437Z,1.60
2023-05-16T16:00:34.025Z,1.40
2023-05-16T16:03:07.133Z,1.40
2023-05-16T16:05:41.427Z,1.33
2023-05-16T16:08:19.843Z,1.97
2023-05-16T16:10:52.700Z,1.70
2023-05-16T16:13:25.410Z,1.67
2023-05-16T16:15:58.243Z,1.47
2023-05-16T16:18:30.960Z,1.40
2023-05-16T16:21:04.156Z,1.30
2023-05-16T16:23:43.270Z,1.20
2023-05-16T16:26:18.227Z,1.40
2023-05-16T16:28:50.984Z,1.20
2023-05-16T16:31:23.645Z,1.73
2023-05-16T16:33:56.545Z,2.10
2023-05-16T16:36:29.773Z,1.80
2023-05-16T16:39:05.856Z,16.07
2023-05-16T16:41:38.662Z,2.80
2023-05-16T16:44:11.933Z,2.40
2023-05-16T16:46:44.787Z,1.67
2023-05-16T16:49:17.640Z,1.43
2023-05-16T16:51:50.318Z,1.43
2023-05-16T16:54:24.629Z,1.90
2023-05-16T16:56:57.454Z,1.27
2023-05-16T16:59:30.167Z,1.63
2023-05-16T17:02:03.077Z,1.30
2023-05-16T17:04:36.620Z,1.50
2023-05-16T17:07:09.876Z,1.13
2023-05-16T17:09:44.298Z,1.40
2023-05-16T17:12:20.328Z,1.40
2023-05-16T17:14:53.743Z,0.93
2023-05-16T17:17:26.899Z,1.30
2023-05-16T17:19:59.623Z,1.77
2023-05-16T17:22:33.725Z,1.97
2023-05-16T17:25:08.465Z,3.13
2023-05-16T17:27:41.763Z,1.70
2023-05-16T17:30:18.355Z,1.90
2023-05-16T17:32:51.419Z,1.43
2023-05-16T17:35:27.071Z,1.60
2023-05-16T17:38:00.250Z,1.20
2023-05-16T17:40:34.329Z,1.60
2023-05-16T17:43:08.239Z,2.23
2023-05-16T17:45:41.185Z,3.57
2023-05-16T17:48:14.558Z,1.87
2023-05-16T17:50:47.498Z,1.53
2023-05-16T17:53:20.430Z,1.57
2023-05-16T17:55:54.750Z,1.77
2023-05-16T17:58:28.019Z,1.90
2023-05-16T18:01:00.667Z,1.57
2023-05-16T18:03:33.548Z,1.83
2023-05-16T18:06:06.985Z,2.03
2023-05-16T18:08:39.817Z,1.60
2023-05-16T18:11:14.002Z,2.00
2023-05-16T18:13:47.022Z,1.63
2023-05-16T18:16:20.705Z,1.60
2023-05-16T18:18:56.319Z,1.27
2023-05-16T18:21:29.109Z,1.37
2023-05-16T18:24:01.792Z,1.47
2023-05-16T18:26:38.370Z,1.50
2023-05-16T18:29:12.922Z,1.40
2023-05-16T18:31:48.491Z,1.70
2023-05-16T18:34:21.229Z,1.50
2023-05-16T18:36:54.031Z,1.50
2023-05-16T18:39:27.020Z,1.80
2023-05-16T18:42:01.323Z,7.50
2023-05-16T18:44:34.243Z,1.47
2023-05-16T18:47:07.557Z,1.73
2023-05-16T18:49:42.429Z,1.53
2023-05-16T18:52:15.297Z,1.73
2023-05-16T18:54:50.244Z,1.47
2023-05-16T18:57:24.358Z,1.70
2023-05-16T18:59:58.357Z,1.60
2023-05-16T19:02:41.417Z,2.07
2023-05-16T19:05:16.140Z,1.43
2023-05-16T19:07:49.240Z,1.47
2023-05-16T19:10:22.324Z,1.80
2023-05-16T19:12:56.851Z,1.90
2023-05-16T19:15:29.817Z,2.30
2023-05-16T19:18:03.025Z,2.07
2023-05-16T19:20:36.688Z,2.13
2023-05-16T19:23:11.813Z,2.20
2023-05-16T19:25:48.182Z,4.37
2023-05-16T19:28:22.538Z,1.90
2023-05-16T19:30:55.352Z,1.90
2023-05-16T19:33:28.068Z,1.90
2023-05-16T19:36:00.958Z,1.73
2023-05-16T19:38:36.134Z,1.97
2023-05-16T19:41:08.900Z,2.30
2023-05-16T19:43:45.879Z,2.20
2023-05-16T19:46:18.598Z,1.40
2023-05-16T19:48:53.402Z,1.37
2023-05-16T19:54:19.045Z,1.40
2023-05-16T19:56:51.649Z,1.50
2023-05-16T19:59:25.885Z,1.40
2023-05-16T20:02:01.473Z,1.33
2023-05-16T20:04:34.179Z,1.47
2023-05-16T20:07:07.447Z,1.77
2023-05-16T20:09:40.560Z,1.50
2023-05-16T20:12:13.895Z,1.90
2023-05-16T20:14:48.396Z,1.43
2023-05-16T20:17:21.157Z,1.70
2023-05-16T20:19:53.860Z,1.20
2023-05-16T20:22:26.879Z,1.37
2023-05-16T20:24:59.791Z,1.70
2023-05-16T20:27:32.392Z,1.87
2023-05-16T20:30:07.722Z,1.70
2023-05-16T20:32:42.702Z,1.70
2023-05-16T20:35:15.965Z,1.57
2023-05-16T20:37:51.487Z,1.40
2023-05-16T20:40:24.365Z,1.87
2023-05-16T20:42:57.204Z,1.80
2023-05-16T20:45:31.358Z,1.90
2023-05-16T20:48:06.211Z,1.73
2023-05-16T20:50:40.358Z,4.40
2023-05-16T20:53:13.045Z,1.90
2023-05-16T20:55:45.873Z,1.80
2023-05-16T20:58:18.814Z,1.80
2023-05-16T21:00:53.616Z,1.87
2023-05-16T21:03:28.148Z,1.83
2023-05-16T21:06:00.867Z,1.70
2023-05-16T21:08:33.695Z,1.60
2023-05-16T21:11:06.686Z,1.20
2023-05-16T21:13:39.393Z,1.93
2023-05-16T21:16:13.800Z,1.60
2023-05-16T21:18:46.699Z,1.70
2023-05-16T21:21:19.835Z,1.90
2023-05-16T21:23:52.526Z,1.70
2023-05-16T21:26:25.298Z,1.30
2023-05-16T21:28:58.004Z,1.80
2023-05-16T21:31:32.422Z,1.77
2023-05-16T21:34:05.267Z,1.87
2023-05-16T21:36:37.932Z,1.40
2023-05-16T21:39:10.824Z,26.17
2023-05-16T21:41:46.596Z,3.50
2023-05-16T21:44:19.386Z,4.47
2023-05-16T21:46:54.286Z,1.90
2023-05-16T21:49:27.272Z,1.80
2023-05-16T21:52:00.156Z,1.80
2023-05-16T21:54:32.964Z,1.80
2023-05-16T21:57:06.608Z,1.60
2023-05-16T21:59:39.300Z,1.87
2023-05-16T22:02:13.650Z,1.97
2023-05-16T22:04:49.215Z,1.57
2023-05-16T22:07:24.257Z,1.60
2023-05-16T22:09:57.338Z,1.50
2023-05-16T22:12:30.147Z,1.60
2023-05-16T22:15:02.902Z,1.70
2023-05-16T22:17:39.512Z,1.73
2023-05-16T22:20:12.682Z,2.20
2023-05-16T22:22:45.783Z,1.87
2023-05-16T22:25:18.746Z,1.60
2023-05-16T22:27:51.869Z,2.10
2023-05-16T22:30:24.733Z,1.97
2023-05-16T22:33:03.721Z,1.47
2023-05-16T22:35:36.553Z,1.67
2023-05-16T22:38:09.358Z,1.73
2023-05-16T22:40:42.337Z,1.73
2023-05-16T22:43:15.477Z,1.70
2023-05-16T22:45:50.193Z,2.20
2023-05-16T22:48:26.439Z,1.60
2023-05-16T22:50:59.645Z,1.97
2023-05-16T22:53:32.491Z,1.43
2023-05-16T22:56:05.788Z,1.90
2023-05-16T22:58:38.479Z,1.97
2023-05-16T23:01:13.455Z,8.13
2023-05-16T23:18:30.456Z,1.90
2023-05-16T23:21:04.835Z,1.70
2023-05-16T23:23:37.620Z,1.80
2023-05-16T23:26:10.353Z,2.23
2023-05-16T23:28:43.035Z,2.60
2023-05-16T23:31:18.313Z,1.70
2023-05-16T23:33:51.081Z,2.27
2023-05-16T23:36:25.166Z,1.90
2023-05-16T23:38:57.828Z,1.77
2023-05-16T23:41:32.933Z,1.87
2023-05-16T23:44:05.823Z,2.00
2023-05-16T23:46:38.473Z,2.00
2023-05-16T23:49:11.176Z,1.83
2023-05-16T23:52:09.343Z,2.30
2023-05-16T23:54:41.984Z,2.40
2023-05-16T23:57:14.804Z,2.00
2023-05-16T23:59:47.653Z,2.40
